Time;durP1;ratioP1;P1;durP2;ratioP2;P2;SDS_P1;SDS_P2;PMS_P1;PMS_P2;Temp;Humidity;BMP_temperature;BMP_pressure;BME280_temperature;BME280_humidity;BME280_pressure;Samples;Min_cycle;Max_cycle;Signal;HPM_P1;HPM_P2
2023/07/10 00:00:52;;;;;;;;;;;;;;;31.19;40.40;99086.22;5093616;28;20433;-46
2023/07/10 00:03:18;;;;;;;;;;;;;;;31.26;40.24;99081.88;5094834;28;19947;-45
2023/07/10 00:05:43;;;;;;;;;;;;;;;31.34;40.53;99090.28;5093470;28;19972;-46
2023/07/10 00:08:09;;;;;;;;;;;;;;;31.32;40.59;99092.53;5094778;28;20338;-46
2023/07/10 00:10:34;;;;;;;;;;;;;;;31.26;40.75;99092.72;5094722;28;19911;-46
2023/07/10 00:13:00;;;;;;;;;;;;;;;31.31;40.99;99093.66;5093359;28;19912;-46
2023/07/10 00:15:26;;;;;;;;;;;;;;;31.37;40.93;99097.75;5076495;28;19916;-46
2023/07/10 00:17:51;;;;;;;;;;;;;;;31.42;40.82;99094.88;5093317;28;20400;-46
2023/07/10 00:20:18;;;;;;;;;;;;;;;31.41;40.86;99101.41;5094573;28;19916;-46
2023/07/10 00:22:44;;;;;;;;;;;;;;;31.36;40.83;99102.41;5093209;28;20300;-46
2023/07/10 00:25:10;;;;;;;;;;;;;;;31.35;40.87;99108.16;5093047;28;19957;-46
2023/07/10 00:27:36;;;;;;;;;;;;;;;31.29;41.10;99104.03;5093557;28;19977;-46
2023/07/10 00:30:02;;;;;;;;;;;;;;;31.21;41.81;99100.25;5094377;28;20389;-46
2023/07/10 00:32:27;;;;;;;;;;;;;;;30.98;41.76;99105.16;5093106;28;20436;-46
2023/07/10 00:34:53;;;;;;;;;;;;;;;30.85;42.33;99098.81;5092797;28;19920;-46
2023/07/10 00:37:18;;;;;;;;;;;;;;;30.78;42.51;99104.72;5094258;28;20393;-46
2023/07/10 00:39:43;;;;;;;;;;;;;;;30.89;42.38;99104.38;5093142;28;19912;-45
2023/07/10 00:42:17;;;;;;;;;;;;;;;30.96;42.26;99107.41;5094383;28;20023;-46
2023/07/10 00:44:47;;;;;;;;;;;;;;;30.92;42.53;99109.97;5093077;28;19915;-46
2023/07/10 00:47:26;;;;;;;;;;;;;;;30.99;42.62;99110.25;5094070;28;20438;-46
2023/07/10 00:50:05;;;;;;;;;;;;;;;31.03;42.39;99111.19;5092669;28;19958;-46
2023/07/10 00:52:49;;;;;;;;;;;;;;;30.96;42.54;99110.13;5092670;28;19918;-46
2023/07/10 00:55:21;;;;;;;;;;;;;;;30.98;42.78;99102.44;5092593;28;19912;-46
2023/07/10 00:57:48;;;;;;;;;;;;;;;30.95;42.78;99105.78;5092552;28;19999;-46
2023/07/10 01:00:18;;;;;;;;;;;;;;;30.84;43.31;99097.22;5093761;28;19912;-46
2023/07/10 01:02:44;;;;;;;;;;;;;;;30.87;43.29;99110.13;5093781;28;19960;-46
2023/07/10 01:05:10;;;;;;;;;;;;;;;30.88;43.35;99110.91;5092395;28;19994;-46
2023/07/10 01:07:38;;;;;;;;;;;;;;;30.86;43.21;99106.59;5092657;28;19923;-46
2023/07/10 01:10:06;;;;;;;;;;;;;;;30.79;43.31;99108.25;5093609;28;19912;-46
2023/07/10 01:12:31;;;;;;;;;;;;;;;30.74;43.88;99108.41;5092242;28;19912;-45
2023/07/10 01:14:57;;;;;;;;;;;;;;;30.70;43.76;99112.88;5093506;28;20015;-46
2023/07/10 01:17:22;;;;;;;;;;;;;;;30.65;43.84;99103.81;5075249;28;19916;-46
2023/07/10 01:19:48;;;;;;;;;;;;;;;30.54;44.35;99107.19;5093432;28;19957;-45
2023/07/10 01:22:14;;;;;;;;;;;;;;;30.35;44.77;99104.84;5092028;28;19912;-45
2023/07/10 01:24:40;;;;;;;;;;;;;;;30.17;45.13;99102.13;5091876;28;19934;-46
2023/07/10 01:27:07;;;;;;;;;;;;;;;30.14;45.35;99107.38;5092278;28;19912;-45
2023/07/10 01:29:47;;;;;;;;;;;;;;;29.94;45.34;99109.66;5091918;28;19912;-46
2023/07/10 01:32:14;;;;;;;;;;;;;;;29.97;45.67;99109.00;5093202;28;20000;-46
2023/07/10 01:34:42;;;;;;;;;;;;;;;29.98;45.85;99109.78;5091527;28;19961;-46
2023/07/10 01:37:07;;;;;;;;;;;;;;;29.70;46.32;99110.09;5091726;28;19926;-46
2023/07/10 01:39:52;;;;;;;;;;;;;;;29.44;46.75;99116.25;5093054;28;20449;-46
2023/07/10 01:42:18;;;;;;;;;;;;;;;29.45;46.93;99108.94;5093019;28;20355;-46
2023/07/10 01:44:44;;;;;;;;;;;;;;;29.54;46.75;99117.03;5091981;28;19916;-46
2023/07/10 01:47:10;;;;;;;;;;;;;;;29.59;46.41;99106.09;5091599;28;19916;-46
2023/07/10 01:49:39;;;;;;;;;;;;;;;29.58;46.77;99109.88;5092878;28;19912;-46
2023/07/10 01:52:07;;;;;;;;;;;;;;;29.65;47.07;99116.44;5091493;28;19912;-46
2023/07/10 01:54:32;;;;;;;;;;;;;;;29.77;46.94;99112.34;5092790;28;20413;-46
2023/07/10 01:56:58;;;;;;;;;;;;;;;29.89;47.03;99111.72;5091412;28;20004;-46
2023/07/10 01:59:23;;;;;;;;;;;;;;;29.90;46.68;99121.41;5092723;28;20002;-46
2023/07/10 02:01:49;;;;;;;;;;;;;;;29.90;46.61;99124.13;5092964;28;19911;-45
2023/07/10 02:04:14;;;;;;;;;;;;;;;29.79;46.54;99127.13;5092585;28;19922;-46
2023/07/10 02:06:40;;;;;;;;;;;;;;;29.71;46.61;99121.69;5092549;28;20370;-46
2023/07/10 02:09:06;;;;;;;;;;;;;;;29.52;46.71;99122.78;5092630;28;19919;-45
2023/07/10 02:11:34;;;;;;;;;;;;;;;29.33;47.08;99133.06;5092561;28;19916;-46
2023/07/10 02:14:00;;;;;;;;;;;;;;;29.20;47.33;99132.88;5092546;28;20389;-46
2023/07/10 02:16:26;;;;;;;;;;;;;;;29.09;47.35;99139.63;5092448;28;19923;-46
2023/07/10 02:18:51;;;;;;;;;;;;;;;29.12;47.81;99143.66;5090907;28;20010;-46
2023/07/10 02:21:17;;;;;;;;;;;;;;;29.06;47.95;99134.88;5092393;28;19958;-46
2023/07/10 02:23:47;;;;;;;;;;;;;;;28.97;48.06;99136.72;5091103;28;19912;-45
2023/07/10 02:26:13;;;;;;;;;;;;;;;28.90;48.52;99141.81;5092640;28;19919;-46
2023/07/10 02:28:38;;;;;;;;;;;;;;;28.92;48.41;99139.59;5091038;28;19912;-46
2023/07/10 02:31:04;;;;;;;;;;;;;;;28.98;48.47;99132.94;5091038;28;19912;-46
2023/07/10 02:33:30;;;;;;;;;;;;;;;28.97;48.12;99137.53;5090818;28;19920;-46
2023/07/10 02:35:55;;;;;;;;;;;;;;;28.94;48.68;99148.19;5092280;28;19916;-46
2023/07/10 02:38:20;;;;;;;;;;;;;;;28.99;48.30;99142.63;5092275;28;19957;-46
2023/07/10 02:40:46;;;;;;;;;;;;;;;29.07;48.54;99145.34;5091097;28;19916;-46
2023/07/10 02:43:11;;;;;;;;;;;;;;;29.03;48.33;99140.88;5092270;28;19919;-46
2023/07/10 02:45:37;;;;;;;;;;;;;;;28.96;48.49;99146.75;5092178;28;20135;-46
2023/07/10 02:48:03;;;;;;;;;;;;;;;28.99;48.90;99148.03;5090912;28;19923;-46
2023/07/10 02:50:28;;;;;;;;;;;;;;;28.98;48.90;99143.75;5074009;28;19919;-46
2023/07/10 02:52:53;;;;;;;;;;;;;;;28.95;48.77;99152.47;5074012;28;20002;-46
2023/07/10 02:55:19;;;;;;;;;;;;;;;28.90;48.85;99149.91;5090749;28;19919;-46
2023/07/10 02:57:44;;;;;;;;;;;;;;;28.82;48.99;99152.25;5090718;28;19916;-46
2023/07/10 03:00:10;;;;;;;;;;;;;;;28.71;49.50;99147.41;5092011;28;20002;-46
2023/07/10 03:02:35;;;;;;;;;;;;;;;28.58;49.86;99151.78;5090733;28;19965;-46
2023/07/10 03:05:01;;;;;;;;;;;;;;;28.54;50.21;99156.22;5091951;28;20425;-46
2023/07/10 03:07:27;;;;;;;;;;;;;;;28.46;50.18;99153.09;5092274;28;19924;-46
2023/07/10 03:09:52;;;;;;;;;;;;;;;28.38;50.27;99147.66;5091977;28;19912;-45
2023/07/10 03:12:18;;;;;;;;;;;;;;;28.37;50.47;99152.25;5090611;28;19911;-46
2023/07/10 03:14:43;;;;;;;;;;;;;;;28.39;50.66;99144.66;5092157;28;19912;-45
2023/07/10 03:17:08;;;;;;;;;;;;;;;28.45;50.55;99156.94;5090536;28;19968;-45
2023/07/10 03:19:34;;;;;;;;;;;;;;;28.48;50.68;99159.00;5091925;28;19912;-46
2023/07/10 03:22:00;;;;;;;;;;;;;;;28.49;50.19;99160.59;5090554;28;20389;-46
2023/07/10 03:24:25;;;;;;;;;;;;;;;28.50;50.42;99166.81;5091853;28;20392;-45
2023/07/10 03:26:51;;;;;;;;;;;;;;;28.58;50.84;99166.09;5090398;28;19916;-46
2023/07/10 03:29:16;;;;;;;;;;;;;;;28.64;50.30;99161.34;5090510;28;19916;-46
2023/07/10 03:31:42;;;;;;;;;;;;;;;28.61;50.52;99170.84;5092922;28;19923;-45
2023/07/10 03:34:08;;;;;;;;;;;;;;;28.63;50.24;99171.38;5095211;28;19916;-45
2023/07/10 03:36:34;;;;;;;;;;;;;;;28.75;50.21;99164.59;5094037;28;20022;-45
2023/07/10 03:38:59;;;;;;;;;;;;;;;28.74;50.24;99177.31;5094070;28;19912;-45
2023/07/10 03:41:24;;;;;;;;;;;;;;;28.88;50.25;99178.03;5093989;28;20297;-46
2023/07/10 03:43:50;;;;;;;;;;;;;;;28.88;50.20;99174.53;5095330;28;19961;-46
2023/07/10 03:46:16;;;;;;;;;;;;;;;28.89;49.96;99178.81;5093807;28;19916;-46
2023/07/10 03:48:42;;;;;;;;;;;;;;;28.86;49.96;99185.63;5093879;28;19912;-46
2023/07/10 03:51:07;;;;;;;;;;;;;;;28.70;50.90;99187.13;5093753;28;19919;-46
2023/07/10 03:53:33;;;;;;;;;;;;;;;28.56;51.03;99189.09;5095345;28;19965;-46
2023/07/10 03:55:58;;;;;;;;;;;;;;;28.61;50.84;99188.97;5095035;28;19959;-46
2023/07/10 03:58:25;;;;;;;;;;;;;;;28.48;51.05;99198.72;5093757;28;20345;-46
2023/07/10 04:00:50;;;;;;;;;;;;;;;28.38;51.44;99199.75;5076857;28;19912;-46
2023/07/10 04:03:16;;;;;;;;;;;;;;;28.39;52.02;99209.44;5093603;28;19923;-46
2023/07/10 04:05:48;;;;;;;;;;;;;;;28.47;51.69;99208.72;5093866;28;19912;-46
2023/07/10 04:08:13;;;;;;;;;;;;;;;28.47;51.52;99199.78;5093972;28;19912;-46
2023/07/10 04:10:38;;;;;;;;;;;;;;;28.40;51.72;99212.94;5094779;28;19916;-45
2023/07/10 04:13:04;;;;;;;;;;;;;;;28.41;51.80;99209.94;5094734;28;19912;-45
2023/07/10 04:15:29;;;;;;;;;;;;;;;28.37;52.03;99218.94;5094718;28;19919;-46
2023/07/10 04:17:55;;;;;;;;;;;;;;;28.37;51.90;99217.06;5094652;28;19938;-46
2023/07/10 04:20:20;;;;;;;;;;;;;;;28.31;52.50;99217.47;5094563;28;19915;-46
2023/07/10 04:22:46;;;;;;;;;;;;;;;28.35;52.46;99216.53;5093273;28;19912;-46
2023/07/10 04:25:11;;;;;;;;;;;;;;;28.53;52.12;99214.00;5093103;28;19912;-46
2023/07/10 04:27:37;;;;;;;;;;;;;;;28.63;51.58;99221.88;5093226;28;20313;-46
2023/07/10 04:30:02;;;;;;;;;;;;;;;28.64;51.56;99218.88;5093108;28;20293;-46
2023/07/10 04:32:28;;;;;;;;;;;;;;;28.73;50.92;99232.41;5076230;28;19916;-46
2023/07/10 04:34:53;;;;;;;;;;;;;;;28.84;51.04;99222.19;5094191;28;19923;-46
2023/07/10 04:37:18;;;;;;;;;;;;;;;28.99;50.25;99235.28;5092915;28;20018;-46
2023/07/10 04:39:44;;;;;;;;;;;;;;;29.01;50.49;99235.00;5094163;28;19994;-46
2023/07/10 04:42:09;;;;;;;;;;;;;;;29.40;49.42;99230.75;5094022;28;19916;-46
2023/07/10 04:44:35;;;;;;;;;;;;;;;29.78;48.55;99232.97;5092749;28;19912;-46
2023/07/10 04:47:00;;;;;;;;;;;;;;;30.17;48.26;99228.59;5092705;28;19919;-46
2023/07/10 04:49:25;;;;;;;;;;;;;;;30.55;47.38;99233.41;5093999;28;19912;-46
2023/07/10 04:51:51;;;;;;;;;;;;;;;30.74;47.15;99228.44;5093921;28;20424;-46
2023/07/10 04:54:16;;;;;;;;;;;;;;;30.93;46.44;99236.25;5092594;28;20309;-46
2023/07/10 04:56:42;;;;;;;;;;;;;;;31.14;46.19;99230.91;5093849;28;20381;-46
2023/07/10 04:59:08;;;;;;;;;;;;;;;31.38;45.74;99235.78;5092536;28;19916;-46
2023/07/10 05:01:34;;;;;;;;;;;;;;;31.80;44.70;99235.91;5093763;28;19916;-46
2023/07/10 05:03:59;;;;;;;;;;;;;;;32.31;43.67;99238.63;5093650;28;19923;-46
2023/07/10 05:06:25;;;;;;;;;;;;;;;32.82;42.19;99239.34;5093891;28;19911;-46
2023/07/10 05:08:55;;;;;;;;;;;;;;;33.34;41.26;99234.44;5093695;28;19918;-45
2023/07/10 05:11:21;;;;;;;;;;;;;;;33.89;40.15;99235.84;5092295;28;19944;-46
2023/07/10 05:13:46;;;;;;;;;;;;;;;34.29;39.27;99237.81;5093533;28;19919;-46
2023/07/10 05:16:13;;;;;;;;;;;;;;;34.59;38.65;99232.81;5093506;28;20454;-46
2023/07/10 05:18:39;;;;;;;;;;;;;;;34.88;38.18;99243.72;5093486;28;19965;-46
2023/07/10 05:21:05;;;;;;;;;;;;;;;35.10;37.79;99240.41;5092059;28;19912;-46
2023/07/10 05:23:30;;;;;;;;;;;;;;;35.47;37.19;99236.63;5093646;28;19912;-46
2023/07/10 05:26:01;;;;;;;;;;;;;;;35.86;36.83;99245.78;5093229;28;19919;-46
2023/07/10 05:28:27;;;;;;;;;;;;;;;36.21;35.84;99247.72;5093362;28;19948;-46
2023/07/10 05:30:53;;;;;;;;;;;;;;;36.51;35.84;99239.72;5093255;28;19974;-46
2023/07/10 05:33:19;;;;;;;;;;;;;;;36.87;35.20;99245.09;5093065;28;19969;-46
2023/07/10 05:35:51;;;;;;;;;;;;;;;36.89;34.49;99243.59;5091973;28;20373;-46
2023/07/10 05:38:16;;;;;;;;;;;;;;;36.84;34.33;99254.81;5092983;28;19916;-46
2023/07/10 05:40:42;;;;;;;;;;;;;;;36.90;34.43;99250.63;5091750;28;19957;-46
2023/07/10 05:43:07;;;;;;;;;;;;;;;37.42;34.21;99242.91;5091811;28;19955;-46
2023/07/10 05:45:33;;;;;;;;;;;;;;;37.88;33.41;99244.78;5092910;28;19912;-46
2023/07/10 05:47:58;;;;;;;;;;;;;;;38.19;32.60;99234.66;5092932;28;19918;-46
2023/07/10 05:50:24;;;;;;;;;;;;;;;38.42;32.58;99231.81;5092874;28;19960;-46
2023/07/10 05:52:49;;;;;;;;;;;;;;;38.67;31.90;99234.81;5092784;28;19973;-46
2023/07/10 05:55:14;;;;;;;;;;;;;;;39.08;31.28;99237.59;5092370;28;19916;-46
2023/07/10 05:57:40;;;;;;;;;;;;;;;39.43;30.42;99237.13;5092837;28;19912;-46
2023/07/10 06:00:06;;;;;;;;;;;;;;;39.70;29.82;99236.88;5092679;28;19912;-46
2023/07/10 06:02:31;;;;;;;;;;;;;;;39.91;29.46;99237.03;5092670;28;19919;-47
2023/07/10 06:04:57;;;;;;;;;;;;;;;40.08;29.13;99232.78;5091263;28;19919;-46
2023/07/10 06:07:22;;;;;;;;;;;;;;;40.17;28.90;99226.94;5092630;28;19916;-46
2023/07/10 06:09:47;;;;;;;;;;;;;;;40.26;28.77;99219.13;5091316;28;20002;-46
2023/07/10 06:12:13;;;;;;;;;;;;;;;40.50;28.63;99223.13;5092560;28;19966;-47
2023/07/10 06:14:38;;;;;;;;;;;;;;;40.82;28.15;99221.66;5092564;28;20454;-46
2023/07/10 06:17:04;;;;;;;;;;;;;;;41.11;27.63;99222.44;5091158;28;19919;-46
2023/07/10 06:19:29;;;;;;;;;;;;;;;41.39;27.37;99229.16;5092518;28;19991;-47
2023/07/10 06:22:05;;;;;;;;;;;;;;;41.70;26.51;99219.28;5092428;28;20453;-46
2023/07/10 06:24:31;;;;;;;;;;;;;;;41.81;26.48;99231.06;5091093;28;19912;-46
2023/07/10 06:26:56;;;;;;;;;;;;;;;42.11;26.32;99229.81;5090968;28;19912;-46
2023/07/10 06:29:21;;;;;;;;;;;;;;;42.31;25.65;99230.88;5092349;28;19998;-46
2023/07/10 06:31:47;;;;;;;;;;;;;;;42.26;25.61;99222.22;5091059;28;19915;-46
2023/07/10 06:34:12;;;;;;;;;;;;;;;42.66;25.24;99220.88;5092051;28;20293;-47
2023/07/10 06:36:38;;;;;;;;;;;;;;;42.92;24.95;99221.47;5090954;28;20297;-46
2023/07/10 06:39:04;;;;;;;;;;;;;;;43.26;24.71;99223.56;5092237;28;19919;-47
2023/07/10 06:41:30;;;;;;;;;;;;;;;43.41;24.27;99222.25;5092271;28;19912;-46
2023/07/10 06:43:56;;;;;;;;;;;;;;;43.51;24.60;99230.84;5092272;28;20392;-47
2023/07/10 06:46:25;;;;;;;;;;;;;;;43.71;24.15;99228.28;5090813;28;19951;-46
2023/07/10 06:48:51;;;;;;;;;;;;;;;43.98;23.49;99225.63;5092178;28;19935;-46
2023/07/10 06:51:16;;;;;;;;;;;;;;;44.14;23.36;99225.81;5090867;28;19916;-46
2023/07/10 06:53:42;;;;;;;;;;;;;;;44.33;23.31;99234.66;5092192;28;19912;-47
2023/07/10 06:56:07;;;;;;;;;;;;;;;44.40;23.56;99226.28;5090735;28;19927;-47
2023/07/10 06:58:34;;;;;;;;;;;;;;;44.49;23.40;99231.31;5090810;28;19912;-47
2023/07/10 07:01:00;;;;;;;;;;;;;;;44.69;23.14;99225.88;5092097;28;19916;-47
2023/07/10 07:03:26;;;;;;;;;;;;;;;44.85;23.01;99223.25;5092341;28;19966;-47
2023/07/10 07:05:51;;;;;;;;;;;;;;;44.97;22.56;99225.44;5093016;28;19947;-46
2023/07/10 07:08:17;;;;;;;;;;;;;;;45.06;22.36;99224.91;5096063;28;19939;-47
2023/07/10 07:10:43;;;;;;;;;;;;;;;45.25;22.14;99228.94;5094630;28;20271;-47
2023/07/10 07:13:09;;;;;;;;;;;;;;;45.60;21.87;99226.72;5095908;28;19919;-46
2023/07/10 07:15:35;;;;;;;;;;;;;;;45.90;21.57;99233.31;5095902;28;19912;-46
2023/07/10 07:18:00;;;;;;;;;;;;;;;45.97;21.44;99233.94;5095789;28;20507;-47
2023/07/10 07:20:26;;;;;;;;;;;;;;;45.90;21.50;99236.09;5095803;28;19919;-47
2023/07/10 07:22:51;;;;;;;;;;;;;;;45.64;21.57;99230.22;5095992;28;19912;-46
2023/07/10 07:25:18;;;;;;;;;;;;;;;45.25;21.76;99228.94;5094294;28;19915;-46
2023/07/10 07:27:43;;;;;;;;;;;;;;;44.96;22.09;99232.19;5095609;28;19915;-46
2023/07/10 07:30:09;;;;;;;;;;;;;;;44.77;22.02;99230.09;5094308;28;19919;-46
2023/07/10 07:32:34;;;;;;;;;;;;;;;44.75;22.28;99224.19;5095633;28;19919;-46
2023/07/10 07:35:00;;;;;;;;;;;;;;;44.56;22.26;99229.22;5094001;28;19923;-46
2023/07/10 07:37:25;;;;;;;;;;;;;;;44.00;23.51;99229.53;5095521;28;19915;-47
2023/07/10 07:39:51;;;;;;;;;;;;;;;43.74;23.44;99221.94;5095402;28;19916;-47
2023/07/10 07:42:16;;;;;;;;;;;;;;;43.43;24.30;99228.16;5094101;28;19912;-47
2023/07/10 07:44:42;;;;;;;;;;;;;;;43.01;24.67;99227.31;5095267;28;19912;-47
2023/07/10 07:47:08;;;;;;;;;;;;;;;42.76;24.64;99233.00;5095267;28;19926;-46
2023/07/10 07:49:33;;;;;;;;;;;;;;;42.81;24.94;99231.81;5095286;28;19919;-47
2023/07/10 07:51:59;;;;;;;;;;;;;;;43.23;24.79;99229.91;5095179;28;19919;-46
2023/07/10 07:54:24;;;;;;;;;;;;;;;43.85;23.55;99220.63;5095168;28;19919;-46
2023/07/10 07:56:50;;;;;;;;;;;;;;;44.32;22.85;99224.81;5095050;28;19916;-47
2023/07/10 07:59:17;;;;;;;;;;;;;;;44.64;22.62;99218.84;5095069;28;19964;-47
2023/07/10 08:01:43;;;;;;;;;;;;;;;44.84;22.43;99216.16;5094970;28;19912;-47
2023/07/10 08:04:09;;;;;;;;;;;;;;;45.26;22.05;99216.69;5093772;28;20289;-47
2023/07/10 08:06:34;;;;;;;;;;;;;;;45.70;21.66;99225.78;5093564;28;19912;-47
2023/07/10 08:09:00;;;;;;;;;;;;;;;45.75;21.37;99222.50;5094873;28;19934;-47
2023/07/10 08:11:26;;;;;;;;;;;;;;;46.30;20.99;99216.63;5095085;28;19919;-47
2023/07/10 08:13:51;;;;;;;;;;;;;;;46.80;20.91;99209.97;5094766;28;20436;-47
2023/07/10 08:16:18;;;;;;;;;;;;;;;46.69;20.81;99214.94;5092935;28;19980;-47
2023/07/10 08:18:43;;;;;;;;;;;;;;;46.78;20.51;99209.59;5094653;28;19935;-47
2023/07/10 08:21:11;;;;;;;;;;;;;;;47.24;20.37;99206.91;5094568;28;19912;-47
2023/07/10 08:23:37;;;;;;;;;;;;;;;47.53;20.20;99204.88;5094821;28;20375;-47
2023/07/10 08:26:03;;;;;;;;;;;;;;;47.50;19.95;99199.44;5094729;28;19916;-47
2023/07/10 08:28:28;;;;;;;;;;;;;;;47.66;19.72;99207.75;5093166;28;19919;-47
2023/07/10 08:30:54;;;;;;;;;;;;;;;48.09;19.29;99206.50;5094407;28;19912;-47
2023/07/10 08:33:19;;;;;;;;;;;;;;;48.39;18.90;99204.44;5092884;28;20281;-48
2023/07/10 08:35:55;;;;;;;;;;;;;;;48.88;19.08;99192.91;5094571;28;19980;-47
2023/07/10 08:38:20;;;;;;;;;;;;;;;49.29;18.46;99199.47;5076107;28;20019;-47
2023/07/10 08:40:47;;;;;;;;;;;;;;;49.41;18.16;99195.09;5094184;28;20409;-47
2023/07/10 08:43:18;;;;;;;;;;;;;;;49.20;17.78;99193.81;5092886;28;20377;-47
2023/07/10 08:45:45;;;;;;;;;;;;;;;49.25;17.98;99190.47;5092924;28;19948;-47
2023/07/10 08:48:25;;;;;;;;;;;;;;;49.32;17.70;99195.75;5092827;28;19916;-47
2023/07/10 08:50:51;;;;;;;;;;;;;;;49.38;17.81;99185.66;5094001;28;19915;-46
2023/07/10 08:53:21;;;;;;;;;;;;;;;49.49;17.86;99187.25;5092678;28;19911;-47
2023/07/10 08:56:05;;;;;;;;;;;;;;;49.54;17.76;99183.88;5092646;28;19961;-47
2023/07/10 08:58:34;;;;;;;;;;;;;;;49.37;17.78;99184.06;5093895;28;19912;-47
2023/07/10 09:01:00;;;;;;;;;;;;;;;49.27;17.54;99188.00;5092500;28;19912;-47
2023/07/10 09:03:26;;;;;;;;;;;;;;;49.02;17.88;99183.28;5092494;28;19912;-47
2023/07/10 09:05:52;;;;;;;;;;;;;;;49.35;17.88;99189.28;5093934;28;19912;-47
2023/07/10 09:08:18;;;;;;;;;;;;;;;49.83;17.60;99178.03;5093690;28;19916;-47
2023/07/10 09:10:46;;;;;;;;;;;;;;;49.60;17.75;99184.84;5075373;28;19934;-47
2023/07/10 09:13:14;;;;;;;;;;;;;;;49.46;17.55;99188.16;5093655;28;19957;-47
2023/07/10 09:15:43;;;;;;;;;;;;;;;49.57;17.72;99188.56;5092251;28;19912;-47
2023/07/10 09:18:27;;;;;;;;;;;;;;;49.70;17.73;99182.88;5092345;28;19912;-47
2023/07/10 09:20:56;;;;;;;;;;;;;;;49.85;17.50;99172.78;5092144;28;20294;-47
2023/07/10 09:23:33;;;;;;;;;;;;;;;49.90;17.44;99179.75;5093439;28;19922;-47
2023/07/10 09:26:21;;;;;;;;;;;;;;;49.70;17.49;99171.72;5091914;28;19919;-47
2023/07/10 09:28:57;;;;;;;;;;;;;;;49.52;17.56;99175.94;5086761;28;20041;-47
2023/07/10 09:31:25;;;;;;;;;;;;;;;49.70;17.52;99177.31;5091982;28;19957;-47
2023/07/10 09:33:58;;;;;;;;;;;;;;;49.65;17.36;99177.91;5091684;28;20446;-47
2023/07/10 09:36:24;;;;;;;;;;;;;;;49.55;17.60;99179.88;5093275;28;19913;-47
2023/07/10 09:38:51;;;;;;;;;;;;;;;49.51;17.49;99179.22;5091825;28;19919;-47
2023/07/10 09:41:21;;;;;;;;;;;;;;;49.71;17.56;99179.66;5093098;28;19965;-47
2023/07/10 09:44:10;;;;;;;;;;;;;;;50.27;17.24;99179.94;5091750;28;19912;-47
2023/07/10 09:46:36;;;;;;;;;;;;;;;49.92;17.43;99172.47;5085971;28;20011;-47
2023/07/10 09:49:13;;;;;;;;;;;;;;;49.32;17.66;99172.69;5092978;28;20432;-47
2023/07/10 09:51:46;;;;;;;;;;;;;;;49.36;17.57;99174.13;5092870;28;20020;-47
2023/07/10 09:54:14;;;;;;;;;;;;;;;49.30;17.82;99170.34;5092917;28;20305;-47
2023/07/10 09:56:39;;;;;;;;;;;;;;;49.45;17.63;99164.31;5092785;28;19912;-47
2023/07/10 09:59:22;;;;;;;;;;;;;;;49.49;17.86;99162.94;5091505;28;19919;-47
2023/07/10 10:01:50;;;;;;;;;;;;;;;49.57;17.59;99164.22;5091441;28;20019;-47
2023/07/10 10:04:34;;;;;;;;;;;;;;;49.39;17.70;99161.31;5092766;28;19916;-47
2023/07/10 10:07:05;;;;;;;;;;;;;;;49.17;17.73;99161.28;5092638;28;19959;-47
2023/07/10 10:09:31;;;;;;;;;;;;;;;49.21;18.08;99148.00;5092646;28;20300;-47
2023/07/10 10:12:15;;;;;;;;;;;;;;;49.60;18.03;99153.38;5091264;28;19919;-47
2023/07/10 10:14:44;;;;;;;;;;;;;;;49.55;17.87;99163.13;5091319;28;19919;-47
2023/07/10 10:17:13;;;;;;;;;;;;;;;49.36;17.43;99153.81;5092523;28;19912;-47
2023/07/10 10:19:43;;;;;;;;;;;;;;;49.34;17.55;99148.69;5092489;28;20373;-47
2023/07/10 10:22:10;;;;;;;;;;;;;;;49.45;17.74;99142.75;5092488;28;19916;-47
2023/07/10 10:24:36;;;;;;;;;;;;;;;49.72;17.61;99144.94;5092681;28;19973;-47
2023/07/10 10:27:01;;;;;;;;;;;;;;;49.88;17.23;99137.56;5092282;28;20408;-47
2023/07/10 10:29:45;;;;;;;;;;;;;;;49.64;17.36;99132.47;5092432;28;20065;-48
2023/07/10 10:32:10;;;;;;;;;;;;;;;49.47;17.38;99134.72;5092345;28;20032;-47
2023/07/10 10:34:42;;;;;;;;;;;;;;;49.53;17.40;99132.13;5092084;28;20461;-47
2023/07/10 10:37:13;;;;;;;;;;;;;;;49.41;17.29;99132.97;5090982;28;19977;-47
2023/07/10 10:39:43;;;;;;;;;;;;;;;48.89;17.99;99133.16;5093303;28;20373;-47
2023/07/10 10:42:14;;;;;;;;;;;;;;;48.96;17.87;99130.13;5096513;28;19912;-47
2023/07/10 10:44:46;;;;;;;;;;;;;;;49.23;17.67;99126.00;5096513;28;19954;-47
2023/07/10 10:47:35;;;;;;;;;;;;;;;49.17;17.70;99125.03;5095108;28;19912;-47
2023/07/10 10:50:19;;;;;;;;;;;;;;;49.06;18.11;99122.63;5096426;28;19994;-47
2023/07/10 10:52:47;;;;;;;;;;;;;;;49.15;17.65;99119.91;5095022;28;20302;-47
2023/07/10 10:55:15;;;;;;;;;;;;;;;49.23;17.88;99119.66;5094936;28;19912;-47
2023/07/10 10:57:56;;;;;;;;;;;;;;;49.43;17.51;99113.78;5096278;28;19911;-47
2023/07/10 11:00:22;;;;;;;;;;;;;;;49.44;17.36;99107.72;5094851;28;19981;-47
2023/07/10 11:02:47;;;;;;;;;;;;;;;49.34;17.48;99120.78;5094846;28;19916;-46
2023/07/10 11:05:20;;;;;;;;;;;;;;;49.11;17.82;99102.53;5094700;28;19916;-47
2023/07/10 11:07:49;;;;;;;;;;;;;;;48.85;17.65;99107.41;5096122;28;19911;-47
2023/07/10 11:10:36;;;;;;;;;;;;;;;48.42;18.34;99111.66;5094705;28;19912;-47
2023/07/10 11:13:03;;;;;;;;;;;;;;;48.07;18.55;99105.19;5096256;28;19916;-47
2023/07/10 11:15:30;;;;;;;;;;;;;;;47.94;18.68;99102.41;5094529;28;20373;-48
2023/07/10 11:17:57;;;;;;;;;;;;;;;47.96;18.55;99102.75;5095956;28;20185;-47
2023/07/10 11:20:24;;;;;;;;;;;;;;;48.12;18.07;99093.50;5094493;28;19948;-48
2023/07/10 11:22:54;;;;;;;;;;;;;;;48.05;17.96;99091.72;5094470;28;19912;-47
2023/07/10 11:25:35;;;;;;;;;;;;;;;47.58;18.86;99087.56;5094311;28;20381;-47
2023/07/10 11:28:01;;;;;;;;;;;;;;;47.34;18.64;99095.38;5094377;28;19912;-47
2023/07/10 11:30:32;;;;;;;;;;;;;;;47.54;19.00;99091.66;5077438;28;19916;-47
2023/07/10 11:33:14;;;;;;;;;;;;;;;47.61;18.61;99085.88;5094318;28;19961;-47
2023/07/10 11:36:00;;;;;;;;;;;;;;;47.99;18.27;99077.56;5094210;28;19972;-47
2023/07/10 11:38:26;;;;;;;;;;;;;;;47.90;18.83;99079.47;5095340;28;19962;-47
2023/07/10 11:40:52;;;;;;;;;;;;;;;47.73;18.91;99079.53;5094115;28;19912;-47
2023/07/10 11:43:27;;;;;;;;;;;;;;;47.65;18.72;99077.44;5094144;28;19920;-47
2023/07/10 11:45:53;;;;;;;;;;;;;;;46.90;19.13;99072.00;5095265;28;20016;-47
2023/07/10 11:48:34;;;;;;;;;;;;;;;46.66;19.60;99080.50;5095321;28;19916;-47
2023/07/10 11:51:01;;;;;;;;;;;;;;;46.88;19.45;99069.63;5094670;28;19912;-47
2023/07/10 11:53:26;;;;;;;;;;;;;;;46.73;19.87;99073.97;5094938;28;19918;-47
2023/07/10 11:56:04;;;;;;;;;;;;;;;46.68;20.01;99066.97;5095142;28;19912;-47
2023/07/10 11:58:31;;;;;;;;;;;;;;;46.78;19.31;99071.47;5093887;28;19916;-47
2023/07/10 12:01:12;;;;;;;;;;;;;;;46.99;19.04;99070.13;5093796;28;19912;-48
2023/07/10 12:03:40;;;;;;;;;;;;;;;46.77;19.69;99067.13;5093780;28;19916;-47
2023/07/10 12:06:16;;;;;;;;;;;;;;;46.26;19.83;99063.25;5093570;28;19919;-47
2023/07/10 12:08:43;;;;;;;;;;;;;;;45.64;20.37;99063.81;5093625;28;19916;-47
2023/07/10 12:11:24;;;;;;;;;;;;;;;45.49;20.56;99066.13;5094796;28;19965;-47
2023/07/10 12:13:50;;;;;;;;;;;;;;;45.81;20.36;99062.69;5094872;28;19964;-47
2023/07/10 12:16:15;;;;;;;;;;;;;;;46.18;19.93;99057.88;5094798;28;19912;-47
2023/07/10 12:18:43;;;;;;;;;;;;;;;46.48;19.85;99053.19;5076529;28;19919;-47
2023/07/10 12:21:17;;;;;;;;;;;;;;;46.47;19.55;99056.41;5094751;28;20352;-50
2023/07/10 12:23:55;;;;;;;;;;;;;;;46.27;19.69;99048.19;5093421;28;19912;-50
2023/07/10 12:26:21;;;;;;;;;;;;;;;45.94;19.93;99042.59;5093432;28;19916;-50
2023/07/10 12:28:52;;;;;;;;;;;;;;;45.40;20.44;99046.50;5093279;28;19965;-50
2023/07/10 12:31:18;;;;;;;;;;;;;;;44.72;21.39;99033.97;5093245;28;19923;-50
2023/07/10 12:33:46;;;;;;;;;;;;;;;44.98;21.23;99044.19;5094191;28;19924;-50
2023/07/10 12:36:31;;;;;;;;;;;;;;;45.13;21.23;99041.91;5094424;28;19919;-50
2023/07/10 12:38:59;;;;;;;;;;;;;;;45.02;21.38;99041.34;5093969;28;19991;-50
2023/07/10 12:41:25;;;;;;;;;;;;;;;45.11;21.32;99035.22;5092891;28;19919;-49
2023/07/10 12:43:51;;;;;;;;;;;;;;;45.16;21.36;99031.94;5092983;28;20258;-49
2023/07/10 12:46:21;;;;;;;;;;;;;;;45.06;21.48;99039.28;5092815;28;19919;-50
2023/07/10 12:48:48;;;;;;;;;;;;;;;44.70;21.84;99037.16;5094135;28;19919;-50
2023/07/10 12:51:20;;;;;;;;;;;;;;;44.55;21.85;99036.63;5092757;28;19916;-50